Detroit, MI

4:22 PM EDT on May 24, 2015 (GMT -0400)
Detroit Metro Wayne County | | Change Station
CLOSE
Current Station
Airport
Location: Detroit Metro,
Elevation: 663 ft
Nearby Weather Stations

Elev 663 ft 42.23 °N, 83.33 °W | Updated 29 minutes ago

Overcast
Overcast
78 °F
Feels Like 78 °F
N
7
Wind Variable Wind from SE

Today
High -- | Low -- °F
--% Chance of Precip.
Yesterday
High -- | Low -- °F
Precip. -- in
6:03 AM 8:55 PM
Waxing Crescent, 42% visible
Pressure 30.19 in
Visibility 10.0 miles
Clouds Scattered Clouds 7000 ft
Overcast 10000 ft
Dew Point 54 °F
Humidity 43%
Rainfall 0.00 in
Snow Depth Not available.
UV 3 out of 12
Pollen 8.30 out of 12
Air Quality Not available.
Flu Activity Sporadic
METAR KDTW 241953Z 14006KT 10SM -RA SCT070 OVC100 26/12 A3019 RMK AO2 RAB1859E09B39 SLP221 P0000 T02560122

More Conditions Fewer Conditions

Pressure 30.19 in
Visibility 10.0 miles
Clouds Scattered Clouds 7000 ft
Overcast 10000 ft
Dew Point 54 °F
Humidity 43%
Rainfall 0.00 in
Snow Depth Not available.
UV 3 out of 12
Pollen 8.30 out of 12
Air Quality Not available.
Flu Activity Sporadic
METAR KDTW 241953Z 14006KT 10SM -RA SCT070 OVC100 26/12 A3019 RMK AO2 RAB1859E09B39 SLP221 P0000 T02560122

More Conditions Fewer Conditions

10-Day Weather Forecast

Almanac

Astronomy

May. 24, 2015 Rise Set
Actual Time
Civil Twilight
Nautical Twilight
Astronomical Twilight
Moon
Length of Visible Light
Length of Day
Tomorrow will be .
, % of the Moon is Illuminated

Today's Extremes

State Highs State Lows

Community

WunderPhotos

Upload Photos

1,823,855 photos uploaded!

WunderBlogs® & News

Nearby

Air Quality

  Air Quality AQ Index Pollutant
Not available.

Snow Depth

Station Depth Elevation

Earthquake Activity

City Distance Mag. Time & Date
Minimum magnitude displayed is 2.5.

Coastal Water Temperatures

Place Temperature

Stations

Nearby Weather Stations

Station Location Temp. Windchill Dew Point Humidity Wind Precip. Elev Updated Type